sensor_id;sensor_type;location;lat;lon;timestamp;pressure;altitude;pressure_sealevel;temperature;humidity
59329;BME280;45100;46.926;7.452;2024-02-23T07:38:55;93696.03;;;2.08;100.00
59329;BME280;45100;46.926;7.452;2024-02-23T07:41:25;93696.85;;;2.11;100.00
59329;BME280;45100;46.926;7.452;2024-02-23T07:43:55;93697.64;;;2.15;100.00
59329;BME280;45100;46.926;7.452;2024-02-23T07:46:26;93703.69;;;2.22;100.00
59329;BME280;45100;46.926;7.452;2024-02-23T07:48:57;93700.59;;;2.26;100.00
59329;BME280;45100;46.926;7.452;2024-02-23T07:51:28;93701.44;;;2.30;100.00
59329;BME280;45100;46.926;7.452;2024-02-23T07:53:58;93700.45;;;2.34;100.00
59329;BME280;45100;46.926;7.452;2024-02-23T07:56:31;93699.06;;;2.38;100.00
59329;BME280;45100;46.926;7.452;2024-02-23T07:59:00;93696.21;;;2.44;100.00
59329;BME280;45100;46.926;7.452;2024-02-23T08:01:29;93688.92;;;2.50;100.00
59329;BME280;45100;46.926;7.452;2024-02-23T08:04:01;93683.17;;;2.55;100.00
59329;BME280;45100;46.926;7.452;2024-02-23T08:06:31;93678.55;;;2.61;100.00
59329;BME280;45100;46.926;7.452;2024-02-23T08:11:35;93676.48;;;2.72;100.00
59329;BME280;45100;46.926;7.452;2024-02-23T08:14:04;93679.34;;;2.80;100.00
59329;BME280;45100;46.926;7.452;2024-02-23T08:16:35;93681.22;;;2.88;100.00
59329;BME280;45100;46.926;7.452;2024-02-23T08:19:49;93681.67;;;2.95;100.00
59329;BME280;45100;46.926;7.452;2024-02-23T08:21:35;93676.84;;;3.02;100.00
59329;BME280;45100;46.926;7.452;2024-02-23T08:24:06;93682.11;;;3.08;100.00
59329;BME280;45100;46.926;7.452;2024-02-23T08:26:38;93683.22;;;3.17;100.00
59329;BME280;45100;46.926;7.452;2024-02-23T08:29:07;93673.66;;;3.25;100.00
59329;BME280;45100;46.926;7.452;2024-02-23T08:31:37;93667.83;;;3.33;100.00
59329;BME280;45100;46.926;7.452;2024-02-23T08:34:07;93662.60;;;3.40;100.00
59329;BME280;45100;46.926;7.452;2024-02-23T08:37:23;93657.62;;;3.45;100.00
59329;BME280;45100;46.926;7.452;2024-02-23T08:40:02;93655.19;;;3.51;100.00
59329;BME280;45100;46.926;7.452;2024-02-23T08:42:26;93648.20;;;3.59;100.00
59329;BME280;45100;46.926;7.452;2024-02-23T08:44:11;93643.94;;;3.68;100.00
59329;BME280;45100;46.926;7.452;2024-02-23T08:47:35;93642.69;;;3.80;100.00
59329;BME280;45100;46.926;7.452;2024-02-23T08:49:24;93639.36;;;3.87;100.00
59329;BME280;45100;46.926;7.452;2024-02-23T08:52:27;93635.68;;;3.95;100.00
59329;BME280;45100;46.926;7.452;2024-02-23T08:55:05;93638.53;;;4.01;100.00
59329;BME280;45100;46.926;7.452;2024-02-23T08:57:24;93638.77;;;4.06;100.00
59329;BME280;45100;46.926;7.452;2024-02-23T09:00:29;93631.66;;;4.08;100.00
59329;BME280;45100;46.926;7.452;2024-02-23T09:02:37;93627.19;;;4.11;99.54
59329;BME280;45100;46.926;7.452;2024-02-23T09:05:17;93625.38;;;4.16;99.84
59329;BME280;45100;46.926;7.452;2024-02-23T09:07:39;93625.73;;;4.22;95.96
59329;BME280;45100;46.926;7.452;2024-02-23T09:18:10;93625.19;;;4.67;93.01
59329;BME280;45100;46.926;7.452;2024-02-23T09:42:56;93603.73;;;5.11;87.40
59329;BME280;45100;46.926;7.452;2024-02-23T09:46:14;93601.31;;;5.20;86.75
59329;BME280;45100;46.926;7.452;2024-02-23T09:48:54;93596.37;;;5.27;86.68
59329;BME280;45100;46.926;7.452;2024-02-23T09:51:31;93594.73;;;5.38;88.81
59329;BME280;45100;46.926;7.452;2024-02-23T09:53:52;93597.03;;;5.53;89.77
59329;BME280;45100;46.926;7.452;2024-02-23T09:56:19;93594.02;;;5.62;86.07
59329;BME280;45100;46.926;7.452;2024-02-23T09:58:50;93596.56;;;5.68;83.33
59329;BME280;45100;46.926;7.452;2024-02-23T10:01:33;93594.95;;;5.70;82.14
59329;BME280;45100;46.926;7.452;2024-02-23T10:04:05;93594.28;;;5.74;83.79
59329;BME280;45100;46.926;7.452;2024-02-23T10:08:45;93597.43;;;5.74;81.25
59329;BME280;45100;46.926;7.452;2024-02-23T10:11:51;93608.98;;;5.77;82.76
59329;BME280;45100;46.926;7.452;2024-02-23T10:14:24;93601.61;;;5.80;81.04
59329;BME280;45100;46.926;7.452;2024-02-23T10:17:26;93601.50;;;5.83;80.83
59329;BME280;45100;46.926;7.452;2024-02-23T10:18:52;93595.47;;;5.91;79.46
59329;BME280;45100;46.926;7.452;2024-02-23T10:24:29;93597.18;;;6.07;75.38
59329;BME280;45100;46.926;7.452;2024-02-23T10:43:36;93582.84;;;6.43;72.16
59329;BME280;45100;46.926;7.452;2024-02-23T10:45:56;93571.67;;;6.50;71.62
59329;BME280;45100;46.926;7.452;2024-02-23T10:48:44;93566.41;;;6.56;71.07
59329;BME280;45100;46.926;7.452;2024-02-23T10:53:54;93559.98;;;6.67;67.22
59329;BME280;45100;46.926;7.452;2024-02-23T10:55:51;93554.48;;;6.71;65.75
59329;BME280;45100;46.926;7.452;2024-02-23T11:01:14;93545.08;;;6.81;63.61
59329;BME280;45100;46.926;7.452;2024-02-23T11:04:06;93552.52;;;6.80;61.92
59329;BME280;45100;46.926;7.452;2024-02-23T11:09:15;93563.19;;;6.74;60.62
59329;BME280;45100;46.926;7.452;2024-02-23T11:16:39;93538.99;;;6.69;59.33
59329;BME280;45100;46.926;7.452;2024-02-23T11:19:12;93543.91;;;6.73;59.12
59329;BME280;45100;46.926;7.452;2024-02-23T11:24:06;93538.71;;;6.92;60.10
59329;BME280;45100;46.926;7.452;2024-02-23T11:28:51;93530.18;;;7.09;58.42
59329;BME280;45100;46.926;7.452;2024-02-23T11:31:47;93531.45;;;7.16;56.71
59329;BME280;45100;46.926;7.452;2024-02-23T11:34:10;93533.26;;;7.23;55.80
59329;BME280;45100;46.926;7.452;2024-02-23T11:43:50;93516.67;;;7.29;51.67
59329;BME280;45100;46.926;7.452;2024-02-23T11:46:49;93514.55;;;7.27;51.72
59329;BME280;45100;46.926;7.452;2024-02-23T11:53:47;93530.78;;;7.31;52.16
59329;BME280;45100;46.926;7.452;2024-02-23T11:56:19;93516.29;;;7.34;53.15
59329;BME280;45100;46.926;7.452;2024-02-23T11:59:36;93522.23;;;7.38;52.60
59329;BME280;45100;46.926;7.452;2024-02-23T12:01:22;93520.59;;;7.41;51.47
59329;BME280;45100;46.926;7.452;2024-02-23T12:04:43;93515.83;;;7.42;51.19
59329;BME280;45100;46.926;7.452;2024-02-23T12:08:57;93512.82;;;7.50;52.46
59329;BME280;45100;46.926;7.452;2024-02-23T12:14:36;93511.91;;;7.61;52.30
59329;BME280;45100;46.926;7.452;2024-02-23T12:30:25;93497.11;;;7.66;54.00
59329;BME280;45100;46.926;7.452;2024-02-23T12:32:39;93494.80;;;7.76;55.29
59329;BME280;45100;46.926;7.452;2024-02-23T12:40:25;93490.05;;;8.19;51.96
59329;BME280;45100;46.926;7.452;2024-02-23T12:42:48;93502.23;;;8.30;51.72
59329;BME280;45100;46.926;7.452;2024-02-23T12:45:13;93485.55;;;8.28;50.93
